KSWO

Stillwater Regional Airport

Stillwater, Oklahoma, USA
METAR KSWO 220453Z AUTO 04008KT 10SM CLR 23/13 A2988 RMK AO2 SLP104 T02280133
Observed Flight Rules
Jun-22 @ 04:53 UTC (49 minutes ago) Visual Flight Rules
Wind Visibility Clouds
40° at 8 knots 10 miles
  • Clear skies
Temperatures Readings
Current 23°C / 73°F
Dewpoint 13°C / 55°F
Humidity 53%
Altimeter 29.88" Hg
Pressure 1010.4 hPa
Elevation 290
METAR KSWO 220453Z AUTO 04008KT 10SM CLR 23/13 A2988 RMK AO2 SLP104 T02280133
Observed Flight Rules
Jun-22 @ 04:53 UTC
(49 minutes ago)
VFR
Wind Visibility
40° at 8 knots 10 miles
Clouds
  • Clear skies
Temperature Dewpoint
23°C / 73°F 13°C / 55°F
Humidity Altimeter Pressure
53% 29.88" Hg 1010.4 hPa